sensor_id;sensor_type;location;lat;lon;timestamp;temperature;humidity
3564;DHT22;1796;52.388;13.096;2024-03-25T00:00:10;4.90;99.90
3564;DHT22;1796;52.388;13.096;2024-03-25T00:02:37;4.90;99.90
3564;DHT22;1796;52.388;13.096;2024-03-25T00:05:04;5.00;99.90
3564;DHT22;1796;52.388;13.096;2024-03-25T00:07:32;4.80;99.90
3564;DHT22;1796;52.388;13.096;2024-03-25T00:09:58;4.90;99.90
3564;DHT22;1796;52.388;13.096;2024-03-25T00:12:25;4.80;99.90
3564;DHT22;1796;52.388;13.096;2024-03-25T00:14:51;4.90;99.90
3564;DHT22;1796;52.388;13.096;2024-03-25T00:17:19;4.90;99.90
3564;DHT22;1796;52.388;13.096;2024-03-25T00:19:45;4.90;99.90
3564;DHT22;1796;52.388;13.096;2024-03-25T00:22:16;4.90;99.90
3564;DHT22;1796;52.388;13.096;2024-03-25T00:24:42;5.00;99.90
3564;DHT22;1796;52.388;13.096;2024-03-25T00:27:09;5.00;99.90
3564;DHT22;1796;52.388;13.096;2024-03-25T00:29:34;5.10;99.90
3564;DHT22;1796;52.388;13.096;2024-03-25T00:32:01;5.00;99.90
3564;DHT22;1796;52.388;13.096;2024-03-25T00:34:28;5.00;99.90
3564;DHT22;1796;52.388;13.096;2024-03-25T00:36:55;5.00;99.90
3564;DHT22;1796;52.388;13.096;2024-03-25T00:39:21;5.10;99.90
3564;DHT22;1796;52.388;13.096;2024-03-25T00:41:48;5.10;99.90
3564;DHT22;1796;52.388;13.096;2024-03-25T00:44:14;5.10;99.90
3564;DHT22;1796;52.388;13.096;2024-03-25T00:46:40;5.10;99.90
3564;DHT22;1796;52.388;13.096;2024-03-25T00:49:07;5.10;99.90
3564;DHT22;1796;52.388;13.096;2024-03-25T00:51:35;5.10;99.90
3564;DHT22;1796;52.388;13.096;2024-03-25T00:54:01;5.10;99.90
3564;DHT22;1796;52.388;13.096;2024-03-25T00:56:28;5.10;99.90
3564;DHT22;1796;52.388;13.096;2024-03-25T00:58:54;5.10;99.90
3564;DHT22;1796;52.388;13.096;2024-03-25T01:01:22;5.10;99.90
3564;DHT22;1796;52.388;13.096;2024-03-25T01:03:48;5.10;99.90
3564;DHT22;1796;52.388;13.096;2024-03-25T01:06:15;5.10;99.90
3564;DHT22;1796;52.388;13.096;2024-03-25T01:08:42;5.10;99.90
3564;DHT22;1796;52.388;13.096;2024-03-25T01:11:09;5.00;99.90
3564;DHT22;1796;52.388;13.096;2024-03-25T01:13:35;5.00;99.90
3564;DHT22;1796;52.388;13.096;2024-03-25T01:16:01;5.00;99.90
3564;DHT22;1796;52.388;13.096;2024-03-25T01:18:27;5.00;99.90
3564;DHT22;1796;52.388;13.096;2024-03-25T01:20:54;5.00;99.90
3564;DHT22;1796;52.388;13.096;2024-03-25T01:23:20;5.10;99.90
3564;DHT22;1796;52.388;13.096;2024-03-25T01:25:48;5.00;99.90
3564;DHT22;1796;52.388;13.096;2024-03-25T01:28:14;5.20;99.90
3564;DHT22;1796;52.388;13.096;2024-03-25T01:30:40;5.10;99.90
3564;DHT22;1796;52.388;13.096;2024-03-25T01:33:06;5.10;99.90
3564;DHT22;1796;52.388;13.096;2024-03-25T01:35:33;5.10;99.90
3564;DHT22;1796;52.388;13.096;2024-03-25T01:37:59;5.10;99.90
3564;DHT22;1796;52.388;13.096;2024-03-25T01:40:26;5.10;99.90
3564;DHT22;1796;52.388;13.096;2024-03-25T01:42:57;5.10;99.90
3564;DHT22;1796;52.388;13.096;2024-03-25T01:45:24;5.10;99.90
3564;DHT22;1796;52.388;13.096;2024-03-25T01:47:50;5.10;99.90
3564;DHT22;1796;52.388;13.096;2024-03-25T01:50:17;5.10;99.90
3564;DHT22;1796;52.388;13.096;2024-03-25T01:52:44;5.10;99.90
3564;DHT22;1796;52.388;13.096;2024-03-25T01:55:15;5.10;99.90
3564;DHT22;1796;52.388;13.096;2024-03-25T01:57:42;5.20;99.90
3564;DHT22;1796;52.388;13.096;2024-03-25T02:00:12;5.20;99.90
3564;DHT22;1796;52.388;13.096;2024-03-25T02:02:40;5.20;99.90
3564;DHT22;1796;52.388;13.096;2024-03-25T02:05:09;5.10;99.90
3564;DHT22;1796;52.388;13.096;2024-03-25T02:07:36;5.10;99.90
3564;DHT22;1796;52.388;13.096;2024-03-25T02:10:04;5.20;99.90
3564;DHT22;1796;52.388;13.096;2024-03-25T02:12:31;5.20;99.90
3564;DHT22;1796;52.388;13.096;2024-03-25T02:14:58;5.10;99.90
3564;DHT22;1796;52.388;13.096;2024-03-25T02:17:25;5.10;99.90
3564;DHT22;1796;52.388;13.096;2024-03-25T02:19:52;5.10;99.90
3564;DHT22;1796;52.388;13.096;2024-03-25T02:22:18;5.10;99.90
3564;DHT22;1796;52.388;13.096;2024-03-25T02:24:45;5.10;99.90
3564;DHT22;1796;52.388;13.096;2024-03-25T02:27:13;5.10;99.90
3564;DHT22;1796;52.388;13.096;2024-03-25T02:29:40;5.10;99.90
3564;DHT22;1796;52.388;13.096;2024-03-25T02:32:06;5.20;99.90
3564;DHT22;1796;52.388;13.096;2024-03-25T02:34:36;5.10;99.90
3564;DHT22;1796;52.388;13.096;2024-03-25T02:37:02;5.10;99.90
3564;DHT22;1796;52.388;13.096;2024-03-25T02:39:29;5.10;99.90
3564;DHT22;1796;52.388;13.096;2024-03-25T02:41:55;5.10;99.90
3564;DHT22;1796;52.388;13.096;2024-03-25T02:44:24;5.10;99.90
3564;DHT22;1796;52.388;13.096;2024-03-25T02:46:49;5.10;99.90
3564;DHT22;1796;52.388;13.096;2024-03-25T02:49:17;5.00;99.90
3564;DHT22;1796;52.388;13.096;2024-03-25T02:51:43;5.00;99.90
3564;DHT22;1796;52.388;13.096;2024-03-25T02:54:10;5.00;99.90
3564;DHT22;1796;52.388;13.096;2024-03-25T02:56:36;5.00;99.90
3564;DHT22;1796;52.388;13.096;2024-03-25T02:59:03;5.00;99.90
3564;DHT22;1796;52.388;13.096;2024-03-25T03:01:30;5.00;99.90
3564;DHT22;1796;52.388;13.096;2024-03-25T03:03:57;5.00;99.90
3564;DHT22;1796;52.388;13.096;2024-03-25T03:06:23;4.90;99.90
3564;DHT22;1796;52.388;13.096;2024-03-25T03:08:49;4.90;99.90
3564;DHT22;1796;52.388;13.096;2024-03-25T03:11:15;4.90;99.90
3564;DHT22;1796;52.388;13.096;2024-03-25T03:13:42;5.00;99.90
3564;DHT22;1796;52.388;13.096;2024-03-25T03:16:07;5.00;99.90
3564;DHT22;1796;52.388;13.096;2024-03-25T03:18:36;5.00;99.90
3564;DHT22;1796;52.388;13.096;2024-03-25T03:21:02;5.00;99.90
3564;DHT22;1796;52.388;13.096;2024-03-25T03:23:28;5.00;99.90
3564;DHT22;1796;52.388;13.096;2024-03-25T03:25:54;5.00;99.90
3564;DHT22;1796;52.388;13.096;2024-03-25T03:28:22;5.00;99.90
3564;DHT22;1796;52.388;13.096;2024-03-25T03:30:49;4.90;99.90
3564;DHT22;1796;52.388;13.096;2024-03-25T03:33:15;5.00;99.90
3564;DHT22;1796;52.388;13.096;2024-03-25T03:35:42;5.00;99.90
3564;DHT22;1796;52.388;13.096;2024-03-25T03:38:09;5.00;99.90
3564;DHT22;1796;52.388;13.096;2024-03-25T03:40:35;5.00;99.90
3564;DHT22;1796;52.388;13.096;2024-03-25T03:43:02;5.00;99.90
3564;DHT22;1796;52.388;13.096;2024-03-25T03:45:33;5.00;99.90
3564;DHT22;1796;52.388;13.096;2024-03-25T03:48:00;5.00;99.90
3564;DHT22;1796;52.388;13.096;2024-03-25T03:50:26;5.00;99.90
3564;DHT22;1796;52.388;13.096;2024-03-25T03:52:54;5.00;99.90
3564;DHT22;1796;52.388;13.096;2024-03-25T03:55:19;5.10;99.90
3564;DHT22;1796;52.388;13.096;2024-03-25T03:57:46;5.10;99.90
3564;DHT22;1796;52.388;13.096;2024-03-25T04:00:13;5.10;99.90
3564;DHT22;1796;52.388;13.096;2024-03-25T04:02:40;5.10;99.90
3564;DHT22;1796;52.388;13.096;2024-03-25T04:05:06;5.00;99.90
3564;DHT22;1796;52.388;13.096;2024-03-25T04:07:33;5.10;99.90
3564;DHT22;1796;52.388;13.096;2024-03-25T04:10:00;5.10;99.90
3564;DHT22;1796;52.388;13.096;2024-03-25T04:12:29;5.10;99.90
3564;DHT22;1796;52.388;13.096;2024-03-25T04:14:54;5.10;99.90
3564;DHT22;1796;52.388;13.096;2024-03-25T04:17:22;5.10;99.90
3564;DHT22;1796;52.388;13.096;2024-03-25T04:19:48;5.10;99.90
3564;DHT22;1796;52.388;13.096;2024-03-25T04:22:14;5.10;99.90
3564;DHT22;1796;52.388;13.096;2024-03-25T04:24:40;5.10;99.90
3564;DHT22;1796;52.388;13.096;2024-03-25T04:27:08;5.10;99.90
3564;DHT22;1796;52.388;13.096;2024-03-25T04:29:34;5.10;99.90
3564;DHT22;1796;52.388;13.096;2024-03-25T04:32:01;5.10;99.90
3564;DHT22;1796;52.388;13.096;2024-03-25T04:34:27;5.10;99.90
3564;DHT22;1796;52.388;13.096;2024-03-25T04:36:55;5.10;99.90
3564;DHT22;1796;52.388;13.096;2024-03-25T04:39:20;5.10;99.90
3564;DHT22;1796;52.388;13.096;2024-03-25T04:41:46;5.10;99.90
3564;DHT22;1796;52.388;13.096;2024-03-25T04:44:13;5.10;99.90
3564;DHT22;1796;52.388;13.096;2024-03-25T04:46:39;5.10;99.90
3564;DHT22;1796;52.388;13.096;2024-03-25T04:49:05;5.10;99.90
3564;DHT22;1796;52.388;13.096;2024-03-25T04:51:31;5.10;99.90
3564;DHT22;1796;52.388;13.096;2024-03-25T04:53:57;5.10;99.90
3564;DHT22;1796;52.388;13.096;2024-03-25T04:56:23;5.10;99.90
3564;DHT22;1796;52.388;13.096;2024-03-25T04:58:49;5.10;99.90
3564;DHT22;1796;52.388;13.096;2024-03-25T05:01:16;5.10;99.90
3564;DHT22;1796;52.388;13.096;2024-03-25T05:03:42;5.10;99.90
3564;DHT22;1796;52.388;13.096;2024-03-25T05:06:07;5.20;99.90
3564;DHT22;1796;52.388;13.096;2024-03-25T05:08:33;5.20;99.90
3564;DHT22;1796;52.388;13.096;2024-03-25T05:10:59;5.20;99.90
3564;DHT22;1796;52.388;13.096;2024-03-25T05:13:25;5.10;99.90
3564;DHT22;1796;52.388;13.096;2024-03-25T05:15:51;5.10;99.90
3564;DHT22;1796;52.388;13.096;2024-03-25T05:18:18;5.20;99.90
3564;DHT22;1796;52.388;13.096;2024-03-25T05:20:44;5.10;99.90
3564;DHT22;1796;52.388;13.096;2024-03-25T05:23:10;5.10;99.90
3564;DHT22;1796;52.388;13.096;2024-03-25T05:25:36;5.20;99.90
3564;DHT22;1796;52.388;13.096;2024-03-25T05:28:02;5.10;99.90
3564;DHT22;1796;52.388;13.096;2024-03-25T05:30:28;5.20;99.90
3564;DHT22;1796;52.388;13.096;2024-03-25T05:32:54;5.20;99.90
3564;DHT22;1796;52.388;13.096;2024-03-25T05:35:21;5.20;99.90
3564;DHT22;1796;52.388;13.096;2024-03-25T05:37:47;5.20;99.90
3564;DHT22;1796;52.388;13.096;2024-03-25T05:40:13;5.20;99.90
3564;DHT22;1796;52.388;13.096;2024-03-25T05:42:39;5.10;99.90
3564;DHT22;1796;52.388;13.096;2024-03-25T05:45:05;5.10;99.90
3564;DHT22;1796;52.388;13.096;2024-03-25T05:47:31;5.10;99.90
3564;DHT22;1796;52.388;13.096;2024-03-25T05:49:57;5.10;99.90
3564;DHT22;1796;52.388;13.096;2024-03-25T05:52:24;5.10;99.90
3564;DHT22;1796;52.388;13.096;2024-03-25T05:54:50;5.10;99.90
3564;DHT22;1796;52.388;13.096;2024-03-25T05:57:16;5.10;99.90
3564;DHT22;1796;52.388;13.096;2024-03-25T05:59:41;5.10;99.90
3564;DHT22;1796;52.388;13.096;2024-03-25T06:02:07;5.10;99.90
3564;DHT22;1796;52.388;13.096;2024-03-25T06:04:33;5.10;99.90
3564;DHT22;1796;52.388;13.096;2024-03-25T06:06:59;5.10;99.90
3564;DHT22;1796;52.388;13.096;2024-03-25T06:09:26;5.10;99.90
3564;DHT22;1796;52.388;13.096;2024-03-25T06:11:52;5.10;99.90
3564;DHT22;1796;52.388;13.096;2024-03-25T06:14:18;5.10;99.90
3564;DHT22;1796;52.388;13.096;2024-03-25T06:16:44;5.30;99.90
3564;DHT22;1796;52.388;13.096;2024-03-25T06:19:12;5.20;99.90
3564;DHT22;1796;52.388;13.096;2024-03-25T06:21:38;5.20;99.90
3564;DHT22;1796;52.388;13.096;2024-03-25T06:24:04;5.20;99.90
3564;DHT22;1796;52.388;13.096;2024-03-25T06:26:31;5.30;99.90
3564;DHT22;1796;52.388;13.096;2024-03-25T06:28:57;5.30;99.90
3564;DHT22;1796;52.388;13.096;2024-03-25T06:31:23;5.30;99.90
3564;DHT22;1796;52.388;13.096;2024-03-25T06:34:07;5.40;99.90
3564;DHT22;1796;52.388;13.096;2024-03-25T06:36:43;5.40;99.90
3564;DHT22;1796;52.388;13.096;2024-03-25T06:39:09;5.40;99.90
3564;DHT22;1796;52.388;13.096;2024-03-25T06:41:36;5.30;99.90
3564;DHT22;1796;52.388;13.096;2024-03-25T06:44:02;5.30;99.90
3564;DHT22;1796;52.388;13.096;2024-03-25T06:46:28;5.40;99.90
3564;DHT22;1796;52.388;13.096;2024-03-25T06:48:54;5.30;99.90
3564;DHT22;1796;52.388;13.096;2024-03-25T06:51:19;5.40;99.90
3564;DHT22;1796;52.388;13.096;2024-03-25T06:53:45;5.40;99.90
3564;DHT22;1796;52.388;13.096;2024-03-25T06:56:11;5.30;99.90
3564;DHT22;1796;52.388;13.096;2024-03-25T06:58:38;5.30;99.90
3564;DHT22;1796;52.388;13.096;2024-03-25T07:01:05;5.30;99.90
3564;DHT22;1796;52.388;13.096;2024-03-25T07:03:31;5.40;99.90
3564;DHT22;1796;52.388;13.096;2024-03-25T07:05:57;5.40;99.90
3564;DHT22;1796;52.388;13.096;2024-03-25T07:08:23;5.40;99.90
3564;DHT22;1796;52.388;13.096;2024-03-25T07:10:49;5.40;99.90
3564;DHT22;1796;52.388;13.096;2024-03-25T07:13:15;5.40;99.90
3564;DHT22;1796;52.388;13.096;2024-03-25T07:15:42;5.50;99.90
3564;DHT22;1796;52.388;13.096;2024-03-25T07:18:08;5.50;99.90
3564;DHT22;1796;52.388;13.096;2024-03-25T07:20:35;5.60;99.90
3564;DHT22;1796;52.388;13.096;2024-03-25T07:23:01;5.60;99.90
3564;DHT22;1796;52.388;13.096;2024-03-25T07:25:27;5.50;99.90
3564;DHT22;1796;52.388;13.096;2024-03-25T07:27:52;5.60;99.90
3564;DHT22;1796;52.388;13.096;2024-03-25T07:30:18;5.60;99.90
3564;DHT22;1796;52.388;13.096;2024-03-25T07:32:46;5.60;99.90
3564;DHT22;1796;52.388;13.096;2024-03-25T07:35:12;5.60;99.90
3564;DHT22;1796;52.388;13.096;2024-03-25T07:37:37;5.60;99.90
3564;DHT22;1796;52.388;13.096;2024-03-25T07:40:06;5.60;99.90
3564;DHT22;1796;52.388;13.096;2024-03-25T07:42:34;5.70;99.90
3564;DHT22;1796;52.388;13.096;2024-03-25T07:44:59;5.80;99.90
3564;DHT22;1796;52.388;13.096;2024-03-25T07:47:25;5.80;99.90
3564;DHT22;1796;52.388;13.096;2024-03-25T07:49:53;5.90;99.90
3564;DHT22;1796;52.388;13.096;2024-03-25T07:52:18;6.00;99.90
3564;DHT22;1796;52.388;13.096;2024-03-25T07:54:44;6.10;99.90
3564;DHT22;1796;52.388;13.096;2024-03-25T07:57:13;6.20;99.90
3564;DHT22;1796;52.388;13.096;2024-03-25T07:59:39;6.20;99.90
3564;DHT22;1796;52.388;13.096;2024-03-25T08:02:05;6.20;99.90
3564;DHT22;1796;52.388;13.096;2024-03-25T08:04:31;6.40;99.90
3564;DHT22;1796;52.388;13.096;2024-03-25T08:06:58;6.40;99.90
3564;DHT22;1796;52.388;13.096;2024-03-25T08:09:24;6.50;99.90
3564;DHT22;1796;52.388;13.096;2024-03-25T08:11:49;6.60;99.90
3564;DHT22;1796;52.388;13.096;2024-03-25T08:14:15;6.70;99.90
3564;DHT22;1796;52.388;13.096;2024-03-25T08:16:41;6.70;99.90
3564;DHT22;1796;52.388;13.096;2024-03-25T08:19:07;6.70;99.90
3564;DHT22;1796;52.388;13.096;2024-03-25T08:21:33;6.80;99.90
3564;DHT22;1796;52.388;13.096;2024-03-25T08:24:00;6.70;99.90
3564;DHT22;1796;52.388;13.096;2024-03-25T08:26:25;6.80;99.90
3564;DHT22;1796;52.388;13.096;2024-03-25T08:28:51;6.90;99.90
3564;DHT22;1796;52.388;13.096;2024-03-25T08:31:17;6.90;99.90
3564;DHT22;1796;52.388;13.096;2024-03-25T08:33:43;7.00;99.90
3564;DHT22;1796;52.388;13.096;2024-03-25T08:36:09;7.10;99.90
3564;DHT22;1796;52.388;13.096;2024-03-25T08:38:35;7.20;99.90
3564;DHT22;1796;52.388;13.096;2024-03-25T08:41:02;7.20;99.90
3564;DHT22;1796;52.388;13.096;2024-03-25T08:43:28;7.20;99.90
3564;DHT22;1796;52.388;13.096;2024-03-25T08:45:54;7.10;99.90
3564;DHT22;1796;52.388;13.096;2024-03-25T08:48:20;7.00;99.90
3564;DHT22;1796;52.388;13.096;2024-03-25T08:50:46;7.00;99.90
3564;DHT22;1796;52.388;13.096;2024-03-25T08:53:12;6.80;99.90
3564;DHT22;1796;52.388;13.096;2024-03-25T08:55:37;7.00;99.90
3564;DHT22;1796;52.388;13.096;2024-03-25T08:58:05;7.10;99.90
3564;DHT22;1796;52.388;13.096;2024-03-25T09:00:30;7.30;99.90
3564;DHT22;1796;52.388;13.096;2024-03-25T09:02:56;7.40;99.90
3564;DHT22;1796;52.388;13.096;2024-03-25T09:05:22;7.60;99.90
3564;DHT22;1796;52.388;13.096;2024-03-25T09:07:49;7.70;99.90
3564;DHT22;1796;52.388;13.096;2024-03-25T09:10:15;7.70;99.90
3564;DHT22;1796;52.388;13.096;2024-03-25T09:12:59;7.70;99.90
3564;DHT22;1796;52.388;13.096;2024-03-25T09:15:26;8.00;99.90
3564;DHT22;1796;52.388;13.096;2024-03-25T09:17:52;8.20;99.90
3564;DHT22;1796;52.388;13.096;2024-03-25T09:20:18;8.20;99.90
3564;DHT22;1796;52.388;13.096;2024-03-25T09:22:44;8.20;99.90
3564;DHT22;1796;52.388;13.096;2024-03-25T09:25:10;8.00;99.90
3564;DHT22;1796;52.388;13.096;2024-03-25T09:27:36;7.90;99.90
3564;DHT22;1796;52.388;13.096;2024-03-25T09:30:02;8.10;99.90
3564;DHT22;1796;52.388;13.096;2024-03-25T09:32:30;8.30;99.90
3564;DHT22;1796;52.388;13.096;2024-03-25T09:34:56;8.50;99.90
3564;DHT22;1796;52.388;13.096;2024-03-25T09:37:22;8.50;99.90
3564;DHT22;1796;52.388;13.096;2024-03-25T09:39:47;8.50;99.90
3564;DHT22;1796;52.388;13.096;2024-03-25T09:42:15;8.50;99.90
3564;DHT22;1796;52.388;13.096;2024-03-25T09:44:43;8.90;99.90
3564;DHT22;1796;52.388;13.096;2024-03-25T09:47:09;9.10;99.90
3564;DHT22;1796;52.388;13.096;2024-03-25T09:49:36;9.20;99.90
3564;DHT22;1796;52.388;13.096;2024-03-25T09:52:03;9.20;99.90
3564;DHT22;1796;52.388;13.096;2024-03-25T09:54:29;8.80;99.90
3564;DHT22;1796;52.388;13.096;2024-03-25T09:56:55;8.70;99.90
3564;DHT22;1796;52.388;13.096;2024-03-25T09:59:21;8.90;99.90
3564;DHT22;1796;52.388;13.096;2024-03-25T10:01:47;8.90;99.90
3564;DHT22;1796;52.388;13.096;2024-03-25T10:04:13;9.10;99.90
3564;DHT22;1796;52.388;13.096;2024-03-25T10:06:41;9.10;99.90
3564;DHT22;1796;52.388;13.096;2024-03-25T10:09:07;9.30;99.90
3564;DHT22;1796;52.388;13.096;2024-03-25T10:11:34;9.40;99.90
3564;DHT22;1796;52.388;13.096;2024-03-25T10:14:00;9.40;99.90
3564;DHT22;1796;52.388;13.096;2024-03-25T10:16:26;9.30;99.90
3564;DHT22;1796;52.388;13.096;2024-03-25T10:18:52;9.40;99.90
3564;DHT22;1796;52.388;13.096;2024-03-25T10:21:20;9.50;99.90
3564;DHT22;1796;52.388;13.096;2024-03-25T10:23:47;9.40;99.90
3564;DHT22;1796;52.388;13.096;2024-03-25T10:26:29;9.10;99.90
3564;DHT22;1796;52.388;13.096;2024-03-25T10:28:59;9.10;99.90
3564;DHT22;1796;52.388;13.096;2024-03-25T10:31:26;9.30;99.90
3564;DHT22;1796;52.388;13.096;2024-03-25T10:33:52;9.50;99.90
3564;DHT22;1796;52.388;13.096;2024-03-25T10:36:19;9.70;99.90
3564;DHT22;1796;52.388;13.096;2024-03-25T10:38:49;9.50;99.90
3564;DHT22;1796;52.388;13.096;2024-03-25T10:41:18;9.50;99.90
3564;DHT22;1796;52.388;13.096;2024-03-25T10:43:46;9.30;99.90
3564;DHT22;1796;52.388;13.096;2024-03-25T10:46:14;9.00;99.90
3564;DHT22;1796;52.388;13.096;2024-03-25T10:48:47;8.90;99.90
3564;DHT22;1796;52.388;13.096;2024-03-25T10:51:13;8.90;99.90
3564;DHT22;1796;52.388;13.096;2024-03-25T10:53:40;8.80;99.90
3564;DHT22;1796;52.388;13.096;2024-03-25T10:56:08;8.90;99.90
3564;DHT22;1796;52.388;13.096;2024-03-25T10:58:34;8.90;99.90
3564;DHT22;1796;52.388;13.096;2024-03-25T11:01:01;9.10;99.90
3564;DHT22;1796;52.388;13.096;2024-03-25T11:03:28;9.30;99.90
3564;DHT22;1796;52.388;13.096;2024-03-25T11:05:53;9.20;99.90
3564;DHT22;1796;52.388;13.096;2024-03-25T11:08:19;9.00;99.90
3564;DHT22;1796;52.388;13.096;2024-03-25T11:10:46;9.20;99.90
3564;DHT22;1796;52.388;13.096;2024-03-25T11:13:16;9.50;99.90
3564;DHT22;1796;52.388;13.096;2024-03-25T11:15:43;9.60;99.90
3564;DHT22;1796;52.388;13.096;2024-03-25T11:18:13;9.40;99.90
3564;DHT22;1796;52.388;13.096;2024-03-25T11:20:39;9.80;99.90
3564;DHT22;1796;52.388;13.096;2024-03-25T11:23:08;10.00;99.90
3564;DHT22;1796;52.388;13.096;2024-03-25T11:25:35;10.40;99.90
3564;DHT22;1796;52.388;13.096;2024-03-25T11:28:01;10.60;99.90
3564;DHT22;1796;52.388;13.096;2024-03-25T11:30:28;10.80;99.90
3564;DHT22;1796;52.388;13.096;2024-03-25T11:32:55;10.80;99.90
3564;DHT22;1796;52.388;13.096;2024-03-25T11:35:21;11.00;99.90
3564;DHT22;1796;52.388;13.096;2024-03-25T11:37:47;11.30;99.90
3564;DHT22;1796;52.388;13.096;2024-03-25T11:40:14;11.50;99.90
3564;DHT22;1796;52.388;13.096;2024-03-25T11:42:40;11.60;99.90
3564;DHT22;1796;52.388;13.096;2024-03-25T11:45:06;11.70;99.90
3564;DHT22;1796;52.388;13.096;2024-03-25T11:47:34;11.70;99.90
3564;DHT22;1796;52.388;13.096;2024-03-25T11:50:00;11.60;99.90
3564;DHT22;1796;52.388;13.096;2024-03-25T11:52:30;11.40;99.90
3564;DHT22;1796;52.388;13.096;2024-03-25T11:54:56;11.20;99.90
3564;DHT22;1796;52.388;13.096;2024-03-25T11:57:22;10.80;99.90
3564;DHT22;1796;52.388;13.096;2024-03-25T11:59:48;10.80;99.90
3564;DHT22;1796;52.388;13.096;2024-03-25T12:02:15;10.60;99.90
3564;DHT22;1796;52.388;13.096;2024-03-25T12:04:43;10.70;99.90
3564;DHT22;1796;52.388;13.096;2024-03-25T12:07:11;10.60;99.90
3564;DHT22;1796;52.388;13.096;2024-03-25T12:09:37;10.50;99.90
3564;DHT22;1796;52.388;13.096;2024-03-25T12:12:21;10.50;99.90
3564;DHT22;1796;52.388;13.096;2024-03-25T12:14:47;10.60;99.90
3564;DHT22;1796;52.388;13.096;2024-03-25T12:17:13;10.60;99.90
3564;DHT22;1796;52.388;13.096;2024-03-25T12:19:40;10.70;99.90
3564;DHT22;1796;52.388;13.096;2024-03-25T12:22:08;10.40;99.90
3564;DHT22;1796;52.388;13.096;2024-03-25T12:24:33;10.30;99.90
3564;DHT22;1796;52.388;13.096;2024-03-25T12:27:00;10.50;99.90
3564;DHT22;1796;52.388;13.096;2024-03-25T12:29:26;10.80;99.90
3564;DHT22;1796;52.388;13.096;2024-03-25T12:31:55;11.20;99.90
3564;DHT22;1796;52.388;13.096;2024-03-25T12:34:21;11.30;99.90
3564;DHT22;1796;52.388;13.096;2024-03-25T12:36:48;11.40;99.90
3564;DHT22;1796;52.388;13.096;2024-03-25T12:39:18;11.30;99.90
3564;DHT22;1796;52.388;13.096;2024-03-25T12:41:44;11.50;99.90
3564;DHT22;1796;52.388;13.096;2024-03-25T12:44:12;11.50;99.90
3564;DHT22;1796;52.388;13.096;2024-03-25T12:46:38;11.50;99.90
3564;DHT22;1796;52.388;13.096;2024-03-25T12:49:04;11.80;99.90
3564;DHT22;1796;52.388;13.096;2024-03-25T12:51:30;12.00;99.90
3564;DHT22;1796;52.388;13.096;2024-03-25T12:53:56;11.60;99.90
3564;DHT22;1796;52.388;13.096;2024-03-25T12:56:24;11.50;99.90
3564;DHT22;1796;52.388;13.096;2024-03-25T12:58:50;11.40;99.90
3564;DHT22;1796;52.388;13.096;2024-03-25T13:01:16;11.70;99.90
3564;DHT22;1796;52.388;13.096;2024-03-25T13:03:42;11.80;99.90
3564;DHT22;1796;52.388;13.096;2024-03-25T13:06:08;11.90;99.90
3564;DHT22;1796;52.388;13.096;2024-03-25T13:08:35;11.70;99.90
3564;DHT22;1796;52.388;13.096;2024-03-25T13:11:00;11.70;99.90
3564;DHT22;1796;52.388;13.096;2024-03-25T13:13:28;11.50;99.90
3564;DHT22;1796;52.388;13.096;2024-03-25T13:15:54;11.90;99.90
3564;DHT22;1796;52.388;13.096;2024-03-25T13:18:19;12.10;99.90
3564;DHT22;1796;52.388;13.096;2024-03-25T13:20:45;12.20;99.90
3564;DHT22;1796;52.388;13.096;2024-03-25T13:23:11;12.30;99.90
3564;DHT22;1796;52.388;13.096;2024-03-25T13:25:37;12.10;99.90
3564;DHT22;1796;52.388;13.096;2024-03-25T13:28:03;12.10;99.90
3564;DHT22;1796;52.388;13.096;2024-03-25T13:30:31;12.10;99.90
3564;DHT22;1796;52.388;13.096;2024-03-25T13:32:57;12.10;99.90
3564;DHT22;1796;52.388;13.096;2024-03-25T13:35:23;12.20;99.90
3564;DHT22;1796;52.388;13.096;2024-03-25T13:37:49;11.90;99.90
3564;DHT22;1796;52.388;13.096;2024-03-25T13:40:15;11.70;99.90
3564;DHT22;1796;52.388;13.096;2024-03-25T13:42:41;11.50;99.90
3564;DHT22;1796;52.388;13.096;2024-03-25T13:45:07;11.10;99.90
3564;DHT22;1796;52.388;13.096;2024-03-25T13:47:34;11.00;99.90
3564;DHT22;1796;52.388;13.096;2024-03-25T13:50:01;11.00;99.90
3564;DHT22;1796;52.388;13.096;2024-03-25T13:52:27;10.70;99.90
3564;DHT22;1796;52.388;13.096;2024-03-25T13:54:52;10.60;99.90
3564;DHT22;1796;52.388;13.096;2024-03-25T13:57:18;10.40;99.90
3564;DHT22;1796;52.388;13.096;2024-03-25T13:59:44;10.50;99.90
3564;DHT22;1796;52.388;13.096;2024-03-25T14:02:10;10.60;99.90
3564;DHT22;1796;52.388;13.096;2024-03-25T14:04:37;10.50;99.90
3564;DHT22;1796;52.388;13.096;2024-03-25T14:07:03;10.50;99.90
3564;DHT22;1796;52.388;13.096;2024-03-25T14:09:29;10.80;99.90
3564;DHT22;1796;52.388;13.096;2024-03-25T14:11:55;10.90;99.90
3564;DHT22;1796;52.388;13.096;2024-03-25T14:14:21;11.10;99.90
3564;DHT22;1796;52.388;13.096;2024-03-25T14:16:46;10.90;99.90
3564;DHT22;1796;52.388;13.096;2024-03-25T14:19:12;10.80;99.90
3564;DHT22;1796;52.388;13.096;2024-03-25T14:21:39;10.80;99.90
3564;DHT22;1796;52.388;13.096;2024-03-25T14:24:06;11.00;99.90
3564;DHT22;1796;52.388;13.096;2024-03-25T14:26:32;11.20;99.90
3564;DHT22;1796;52.388;13.096;2024-03-25T14:28:58;11.10;99.90
3564;DHT22;1796;52.388;13.096;2024-03-25T14:31:24;11.00;99.90
3564;DHT22;1796;52.388;13.096;2024-03-25T14:33:50;11.10;99.90
3564;DHT22;1796;52.388;13.096;2024-03-25T14:36:16;11.10;99.90
3564;DHT22;1796;52.388;13.096;2024-03-25T14:38:43;11.20;99.90
3564;DHT22;1796;52.388;13.096;2024-03-25T14:41:11;11.50;99.90
3564;DHT22;1796;52.388;13.096;2024-03-25T14:43:37;11.60;99.90
3564;DHT22;1796;52.388;13.096;2024-03-25T14:46:03;11.70;99.90
3564;DHT22;1796;52.388;13.096;2024-03-25T14:48:29;11.60;99.90
3564;DHT22;1796;52.388;13.096;2024-03-25T14:50:55;11.40;99.90
3564;DHT22;1796;52.388;13.096;2024-03-25T14:53:20;11.20;99.90
3564;DHT22;1796;52.388;13.096;2024-03-25T14:55:48;11.10;99.90
3564;DHT22;1796;52.388;13.096;2024-03-25T14:58:13;10.60;99.90
3564;DHT22;1796;52.388;13.096;2024-03-25T15:00:39;10.40;99.90
3564;DHT22;1796;52.388;13.096;2024-03-25T15:03:05;10.20;99.90
3564;DHT22;1796;52.388;13.096;2024-03-25T15:05:31;9.90;99.90
3564;DHT22;1796;52.388;13.096;2024-03-25T15:07:56;9.50;99.90
3564;DHT22;1796;52.388;13.096;2024-03-25T15:10:22;9.30;99.90
3564;DHT22;1796;52.388;13.096;2024-03-25T15:12:49;9.20;99.90
3564;DHT22;1796;52.388;13.096;2024-03-25T15:15:15;9.10;99.90
3564;DHT22;1796;52.388;13.096;2024-03-25T15:17:41;9.00;99.90
3564;DHT22;1796;52.388;13.096;2024-03-25T15:20:08;9.00;99.90
3564;DHT22;1796;52.388;13.096;2024-03-25T15:22:34;9.10;99.90
3564;DHT22;1796;52.388;13.096;2024-03-25T15:25:00;9.40;99.90
3564;DHT22;1796;52.388;13.096;2024-03-25T15:27:26;9.50;99.90
3564;DHT22;1796;52.388;13.096;2024-03-25T15:29:53;9.60;99.90
3564;DHT22;1796;52.388;13.096;2024-03-25T15:32:19;9.50;99.90
3564;DHT22;1796;52.388;13.096;2024-03-25T15:34:45;9.50;99.90
3564;DHT22;1796;52.388;13.096;2024-03-25T15:37:11;9.60;99.90
3564;DHT22;1796;52.388;13.096;2024-03-25T15:39:37;9.80;99.90
3564;DHT22;1796;52.388;13.096;2024-03-25T15:42:03;9.90;99.90
3564;DHT22;1796;52.388;13.096;2024-03-25T15:44:29;9.80;99.90
3564;DHT22;1796;52.388;13.096;2024-03-25T15:46:56;9.80;99.90
3564;DHT22;1796;52.388;13.096;2024-03-25T15:49:22;9.70;99.90
3564;DHT22;1796;52.388;13.096;2024-03-25T15:51:48;9.70;99.90